createdAt,value
2022-09-10T00:01:44.246Z,99393.91
2022-09-10T00:04:14.549Z,99402.81
2022-09-10T00:06:46.209Z,99395.22
2022-09-10T00:09:14.339Z,99399.03
2022-09-10T00:11:45.842Z,99391.34
2022-09-10T00:14:21.900Z,99392.44
2022-09-10T00:16:50.182Z,99392.47
2022-09-10T00:19:18.546Z,99392.84
2022-09-10T00:21:46.268Z,99389.38
2022-09-10T00:24:14.363Z,99383.25
2022-09-10T00:26:42.207Z,99381.13
2022-09-10T00:29:20.053Z,99386.97
2022-09-10T00:31:49.293Z,99387.41
2022-09-10T00:34:17.356Z,99372.88
2022-09-10T00:36:44.971Z,99368.25
2022-09-10T00:39:16.007Z,99358.84
2022-09-10T00:41:48.357Z,99367.69
2022-09-10T00:44:38.802Z,99374.75
2022-09-10T00:47:14.163Z,99376.66
2022-09-10T00:49:50.854Z,99376.66
2022-09-10T00:52:21.798Z,99368.91
2022-09-10T00:54:50.110Z,99372.91
2022-09-10T00:57:23.320Z,99364.38
2022-09-10T00:59:59.644Z,99365.28
2022-09-10T01:02:27.481Z,99361.03
2022-09-10T01:04:58.255Z,99358.28
2022-09-10T01:07:29.229Z,99364.38
2022-09-10T01:09:59.322Z,99363.81
2022-09-10T01:12:58.868Z,99357.69
2022-09-10T01:15:53.436Z,99358.88
2022-09-10T01:18:27.413Z,99348.75
2022-09-10T01:21:02.544Z,99340.59
2022-09-10T01:23:55.589Z,99343.75
2022-09-10T01:26:29.805Z,99346.50
2022-09-10T01:29:28.551Z,99340.38
2022-09-10T01:32:07.053Z,99341.69
2022-09-10T01:35:14.432Z,99317.31
2022-09-10T01:37:54.617Z,99328.22
2022-09-10T01:40:32.608Z,99307.63
2022-09-10T01:43:11.750Z,99313.31
2022-09-10T01:45:45.444Z,99314.78
2022-09-10T01:48:41.599Z,99303.69
2022-09-10T01:51:31.145Z,99305.81
2022-09-10T01:54:26.455Z,99316.56
2022-09-10T01:57:13.819Z,99323.53
2022-09-10T01:59:47.368Z,99302.69
2022-09-10T02:02:21.746Z,99293.50
2022-09-10T02:04:53.533Z,99275.75
2022-09-10T02:07:23.129Z,99273.81
2022-09-10T02:09:52.286Z,99278.75
2022-09-10T02:12:22.356Z,99290.97
2022-09-10T02:14:54.151Z,99289.50
2022-09-10T02:17:24.483Z,99286.13
2022-09-10T02:19:52.919Z,99296.91
2022-09-10T02:22:26.565Z,99301.66
2022-09-10T02:24:54.317Z,99298.50
2022-09-10T02:27:23.723Z,99304.62
2022-09-10T02:29:52.300Z,99295.97
2022-09-10T02:32:22.523Z,99287.72
2022-09-10T02:34:59.324Z,99281.91
2022-09-10T02:37:28.446Z,99285.84
2022-09-10T02:39:56.352Z,99286.09
2022-09-10T02:42:26.436Z,99279.63
2022-09-10T02:44:54.044Z,99272.34
2022-09-10T02:47:21.888Z,99278.16
2022-09-10T02:49:54.645Z,99277.81
2022-09-10T02:52:24.895Z,99276.34
2022-09-10T02:54:54.840Z,99276.16
2022-09-10T02:57:22.969Z,99283.66
2022-09-10T02:59:54.055Z,99291.72
2022-09-10T03:02:23.129Z,99285.31
2022-09-10T03:04:50.706Z,99282.59
2022-09-10T03:07:20.397Z,99283.69
2022-09-10T03:09:48.428Z,99291.13
2022-09-10T03:12:16.314Z,99284.91
2022-09-10T03:14:47.460Z,99281.16
2022-09-10T03:17:15.350Z,99286.78
2022-09-10T03:19:43.787Z,99282.59
2022-09-10T03:22:11.615Z,99285.72
2022-09-10T03:24:39.504Z,99285.66
2022-09-10T03:27:07.127Z,99279.84
2022-09-10T03:29:36.375Z,99280.22
2022-09-10T03:32:04.206Z,99279.41
2022-09-10T03:34:31.728Z,99286.00
2022-09-10T03:36:59.527Z,99280.62
2022-09-10T03:39:28.544Z,99269.09
2022-09-10T03:42:05.333Z,99267.72
2022-09-10T03:44:33.829Z,99274.28
2022-09-10T03:47:05.162Z,99261.69
2022-09-10T03:49:33.226Z,99275.97
2022-09-10T03:52:03.521Z,99272.41
2022-09-10T03:54:32.378Z,99270.37
2022-09-10T03:57:03.084Z,99267.88
2022-09-10T03:59:31.228Z,99279.88
2022-09-10T04:01:59.392Z,99271.19
2022-09-10T04:04:27.503Z,99274.34
2022-09-10T04:06:54.928Z,99277.47
2022-09-10T04:09:22.391Z,99275.97
2022-09-10T04:11:50.562Z,99273.41
2022-09-10T04:14:20.388Z,99274.56
2022-09-10T04:16:48.954Z,99279.50
2022-09-10T04:19:18.070Z,99291.09
2022-09-10T04:21:47.707Z,99279.50
2022-09-10T04:24:15.312Z,99280.69
2022-09-10T04:26:43.103Z,99298.16
2022-09-10T04:29:17.019Z,99295.88
2022-09-10T04:31:46.805Z,99293.63
2022-09-10T04:34:17.788Z,99294.00
2022-09-10T04:36:45.451Z,99305.81
2022-09-10T04:39:14.701Z,99300.87
2022-09-10T04:41:45.762Z,99292.75
2022-09-10T04:44:13.723Z,99290.75
2022-09-10T04:46:43.578Z,99291.34
2022-09-10T04:49:11.486Z,99284.13
2022-09-10T04:51:39.466Z,99298.16
2022-09-10T04:54:07.723Z,99291.16
2022-09-10T04:56:36.664Z,99284.72
2022-09-10T04:59:05.664Z,99287.81
2022-09-10T05:01:33.239Z,99286.59
2022-09-10T05:04:00.707Z,99289.03
2022-09-10T05:06:28.383Z,99296.72
2022-09-10T05:08:56.732Z,99289.47
2022-09-10T05:11:25.901Z,99288.03
2022-09-10T05:13:54.273Z,99290.13
2022-09-10T05:16:22.093Z,99288.66
2022-09-10T05:18:49.718Z,99290.28
2022-09-10T05:21:18.633Z,99293.16
2022-09-10T05:23:47.337Z,99298.56
2022-09-10T05:26:15.039Z,99301.91
2022-09-10T05:28:47.862Z,99306.47
2022-09-10T05:31:18.139Z,99309.13
2022-09-10T05:33:46.707Z,99302.34
2022-09-10T05:36:14.924Z,99300.03
2022-09-10T05:38:46.584Z,99306.87
2022-09-10T05:41:15.477Z,99311.22
2022-09-10T05:43:43.419Z,99314.53
2022-09-10T05:46:14.212Z,99321.41
2022-09-10T05:48:43.268Z,99318.91
2022-09-10T05:51:11.210Z,99316.00
2022-09-10T05:53:39.582Z,99312.47
2022-09-10T05:56:07.705Z,99315.91
2022-09-10T05:58:41.430Z,99306.56
2022-09-10T06:01:09.698Z,99309.03
2022-09-10T06:03:43.165Z,99315.19
2022-09-10T06:06:11.349Z,99316.13
2022-09-10T06:08:41.334Z,99311.97
2022-09-10T06:11:10.683Z,99316.44
2022-09-10T06:13:40.000Z,99304.66
2022-09-10T06:16:08.999Z,99308.16
2022-09-10T06:18:37.226Z,99303.69
2022-09-10T06:21:16.373Z,99310.38
2022-09-10T06:23:45.686Z,99304.66
2022-09-10T06:26:17.302Z,99302.03
2022-09-10T06:28:45.331Z,99300.06
2022-09-10T06:31:17.324Z,99304.75
2022-09-10T06:33:47.124Z,99310.25
2022-09-10T06:36:15.912Z,99309.25
2022-09-10T06:38:45.274Z,99308.63
2022-09-10T06:41:17.168Z,99311.94
2022-09-10T06:43:48.597Z,99314.50
2022-09-10T06:46:51.194Z,99313.84
2022-09-10T06:49:06.963Z,99305.47
2022-09-10T06:51:35.265Z,99314.41
2022-09-10T06:54:05.951Z,99318.22
2022-09-10T06:56:34.295Z,99319.59
2022-09-10T06:59:02.855Z,99320.09
2022-09-10T07:01:31.199Z,99323.66
2022-09-10T07:04:00.344Z,99325.69
2022-09-10T07:06:34.910Z,99332.09
2022-09-10T07:09:03.863Z,99335.59
2022-09-10T07:11:32.799Z,99336.69
2022-09-10T07:14:01.602Z,99341.81
2022-09-10T07:16:29.740Z,99348.22
2022-09-10T07:18:59.540Z,99348.69
2022-09-10T07:21:31.265Z,99346.66
2022-09-10T07:24:04.478Z,99346.81
2022-09-10T07:26:33.003Z,99356.88
2022-09-10T07:29:02.083Z,99357.53
2022-09-10T07:31:34.050Z,99361.66
2022-09-10T07:34:03.056Z,99359.25
2022-09-10T07:36:31.434Z,99359.00
2022-09-10T07:39:03.291Z,99359.47
2022-09-10T07:41:37.713Z,99369.72
2022-09-10T07:44:05.969Z,99376.59
2022-09-10T07:46:34.279Z,99377.22
2022-09-10T07:49:02.732Z,99378.66
2022-09-10T07:51:33.294Z,99372.62
2022-09-10T07:54:01.796Z,99384.47
2022-09-10T07:56:31.985Z,99372.44
2022-09-10T07:59:04.109Z,99373.66
2022-09-10T08:01:43.044Z,99375.56
2022-09-10T08:04:11.241Z,99380.28
2022-09-10T08:06:39.860Z,99373.16
2022-09-10T08:09:07.986Z,99377.84
2022-09-10T08:11:36.380Z,99377.03
2022-09-10T08:14:05.109Z,99390.25
2022-09-10T08:16:39.252Z,99383.06
2022-09-10T08:19:16.821Z,99383.84
2022-09-10T08:21:45.743Z,99395.00
2022-09-10T08:24:14.991Z,99392.50
2022-09-10T08:26:43.879Z,99388.22
2022-09-10T08:29:12.226Z,99383.50
2022-09-10T08:31:41.761Z,99384.16
2022-09-10T08:34:12.106Z,99385.84
2022-09-10T08:36:40.353Z,99379.97
2022-09-10T08:39:08.619Z,99390.34
2022-09-10T08:41:57.693Z,99397.69
2022-09-10T08:44:43.611Z,99403.56
2022-09-10T08:47:35.289Z,99391.47
2022-09-10T08:50:20.786Z,99392.09
2022-09-10T08:53:08.063Z,99397.84
2022-09-10T08:55:45.035Z,99399.81
2022-09-10T08:58:37.589Z,99394.53
2022-09-10T09:01:12.992Z,99397.13
2022-09-10T09:03:47.510Z,99408.09
2022-09-10T09:06:29.324Z,99409.81
2022-09-10T09:08:58.761Z,99401.31
2022-09-10T09:11:48.009Z,99398.53
2022-09-10T09:14:21.527Z,99406.53
2022-09-10T09:17:17.030Z,99405.87
2022-09-10T09:19:59.630Z,99409.34
2022-09-10T09:22:51.646Z,99397.94
2022-09-10T09:25:32.788Z,99403.53
2022-09-10T09:28:01.393Z,99405.53
2022-09-10T09:30:34.313Z,99412.31
2022-09-10T09:33:22.690Z,99401.22
2022-09-10T09:35:55.444Z,99394.31
2022-09-10T09:38:24.529Z,99402.28
2022-09-10T09:41:01.260Z,99395.06
2022-09-10T09:44:20.635Z,99390.25
2022-09-10T09:46:57.562Z,99395.84
2022-09-10T09:49:26.379Z,99394.62
2022-09-10T09:51:56.154Z,99384.25
2022-09-10T09:55:03.011Z,99379.69
2022-09-10T09:57:21.016Z,99385.63
2022-09-10T09:59:51.497Z,99386.25
2022-09-10T10:02:25.477Z,99379.28
2022-09-10T10:05:07.426Z,99373.44
2022-09-10T10:07:37.186Z,99375.22
2022-09-10T10:10:22.473Z,99382.28
2022-09-10T10:12:51.739Z,99377.25
2022-09-10T10:15:36.909Z,99372.00
2022-09-10T10:18:25.323Z,99369.53
2022-09-10T10:21:33.122Z,99371.91
2022-09-10T10:24:04.360Z,99372.81
2022-09-10T10:26:33.874Z,99363.88
2022-09-10T10:29:06.557Z,99356.25
2022-09-10T10:31:42.653Z,99366.38
2022-09-10T10:34:10.317Z,99356.22
2022-09-10T10:37:09.384Z,99352.09
2022-09-10T10:39:49.555Z,99352.09
2022-09-10T10:42:39.674Z,99347.84
2022-09-10T10:45:38.804Z,99346.66
2022-09-10T10:48:37.880Z,99342.88
2022-09-10T10:51:18.393Z,99355.38
2022-09-10T10:53:49.689Z,99355.06
2022-09-10T10:56:33.191Z,99356.91
2022-09-10T10:59:16.475Z,99349.12
2022-09-10T11:02:14.268Z,99357.66
2022-09-10T11:04:46.820Z,99344.53
2022-09-10T11:07:23.501Z,99353.41
2022-09-10T11:10:00.488Z,99345.91
2022-09-10T11:12:43.890Z,99361.84
2022-09-10T11:15:34.987Z,99360.00
2022-09-10T11:18:20.528Z,99360.13
2022-09-10T11:21:03.307Z,99364.69
2022-09-10T11:23:55.525Z,99359.16
2022-09-10T11:26:25.190Z,99359.06
2022-09-10T11:29:18.187Z,99357.22
2022-09-10T11:31:50.380Z,99363.78
2022-09-10T11:34:31.828Z,99356.62
2022-09-10T11:37:29.572Z,99354.88
2022-09-10T11:39:59.842Z,99355.00
2022-09-10T11:42:38.676Z,99356.59
2022-09-10T11:48:53.474Z,99346.75
2022-09-10T11:51:29.422Z,99333.72
2022-09-10T11:53:58.194Z,99340.69
2022-09-10T11:56:53.124Z,99340.78
2022-09-10T11:59:59.770Z,99343.03
2022-09-10T12:02:59.609Z,99344.69
2022-09-10T12:06:02.277Z,99339.97
2022-09-10T12:08:38.487Z,99348.47
2022-09-10T12:11:15.692Z,99343.97
2022-09-10T12:13:49.511Z,99349.62
2022-09-10T12:16:36.536Z,99346.59
2022-09-10T12:19:16.614Z,99332.50
2022-09-10T12:21:50.296Z,99331.78
2022-09-10T12:24:36.288Z,99334.66
2022-09-10T12:27:08.900Z,99339.16
2022-09-10T12:29:43.500Z,99338.91
2022-09-10T12:32:20.702Z,99338.16
2022-09-10T12:35:30.526Z,99334.09
2022-09-10T12:38:36.742Z,99334.28
2022-09-10T12:41:10.759Z,99330.25
2022-09-10T12:43:41.358Z,99332.13
2022-09-10T12:46:09.109Z,99336.81
2022-09-10T12:48:41.703Z,99331.44
2022-09-10T12:51:43.597Z,99329.72
2022-09-10T12:54:20.433Z,99322.75
2022-09-10T12:57:04.098Z,99310.09
2022-09-10T12:59:40.995Z,99319.66
2022-09-10T13:02:23.495Z,99324.16
2022-09-10T13:04:57.577Z,99321.53
2022-09-10T13:07:32.824Z,99319.09
2022-09-10T13:10:24.475Z,99317.00
2022-09-10T13:13:05.136Z,99324.97
2022-09-10T13:15:35.819Z,99317.47
2022-09-10T13:18:13.192Z,99313.47
2022-09-10T13:20:45.527Z,99321.97
2022-09-10T13:23:18.342Z,99317.19
2022-09-10T13:25:47.823Z,99323.37
2022-09-10T13:28:30.449Z,99316.84
2022-09-10T13:31:05.864Z,99321.22
2022-09-10T13:33:52.665Z,99310.09
2022-09-10T13:36:29.569Z,99306.00
2022-09-10T13:39:23.744Z,99306.09
2022-09-10T13:42:06.541Z,99303.22
2022-09-10T13:48:31.540Z,99299.63
2022-09-10T13:51:17.500Z,99304.44
2022-09-10T13:53:47.172Z,99298.69
2022-09-10T13:56:28.514Z,99290.81
2022-09-10T13:59:03.409Z,99296.97
2022-09-10T14:01:55.383Z,99298.69
2022-09-10T14:04:33.541Z,99301.72
2022-09-10T14:07:18.305Z,99306.25
2022-09-10T14:09:52.284Z,99292.91
2022-09-10T14:12:26.659Z,99301.31
2022-09-10T14:14:56.859Z,99289.69
2022-09-10T14:17:29.337Z,99280.59
2022-09-10T14:20:02.728Z,99285.31
2022-09-10T14:22:31.936Z,99286.31
2022-09-10T14:25:04.333Z,99281.75
2022-09-10T14:27:43.556Z,99282.56
2022-09-10T14:30:19.855Z,99280.81
2022-09-10T14:32:50.399Z,99277.16
2022-09-10T14:35:46.825Z,99278.00
2022-09-10T14:38:30.230Z,99276.34
2022-09-10T14:41:11.286Z,99280.69
2022-09-10T14:43:40.706Z,99273.53
2022-09-10T14:46:10.415Z,99279.91
2022-09-10T14:49:01.425Z,99276.72
2022-09-10T14:51:32.133Z,99284.00
2022-09-10T14:53:59.758Z,99281.50
2022-09-10T14:56:45.180Z,99281.94
2022-09-10T14:59:26.998Z,99272.81
2022-09-10T15:01:56.637Z,99268.63
2022-09-10T15:04:28.546Z,99275.22
2022-09-10T15:07:00.562Z,99271.41
2022-09-10T15:09:29.701Z,99285.22
2022-09-10T15:12:13.486Z,99289.91
2022-09-10T15:14:44.618Z,99286.84
2022-09-10T15:17:17.711Z,99279.53
2022-09-10T15:19:47.198Z,99285.06
2022-09-10T15:22:29.704Z,99291.06
2022-09-10T15:25:09.542Z,99282.50
2022-09-10T15:27:41.926Z,99294.28
2022-09-10T15:30:22.508Z,99293.00
2022-09-10T15:32:52.476Z,99292.16
2022-09-10T15:35:23.206Z,99297.16
2022-09-10T15:37:51.798Z,99307.19
2022-09-10T15:40:19.483Z,99305.41
2022-09-10T15:42:48.687Z,99306.22
2022-09-10T15:45:16.366Z,99312.38
2022-09-10T15:47:44.522Z,99319.97
2022-09-10T15:50:14.709Z,99323.63
2022-09-10T15:52:50.608Z,99323.00
2022-09-10T15:55:22.102Z,99328.97
2022-09-10T15:57:58.176Z,99332.91
2022-09-10T16:00:30.109Z,99342.97
2022-09-10T16:02:58.581Z,99338.25
2022-09-10T16:05:27.166Z,99339.13
2022-09-10T16:07:56.871Z,99339.31
2022-09-10T16:10:33.469Z,99350.00
2022-09-10T16:13:01.026Z,99350.81
2022-09-10T16:15:28.965Z,99351.28
2022-09-10T16:18:02.713Z,99346.88
2022-09-10T16:20:32.211Z,99345.84
2022-09-10T16:23:04.529Z,99346.88
2022-09-10T16:25:33.937Z,99351.41
2022-09-10T16:28:08.823Z,99354.41
2022-09-10T16:30:39.763Z,99349.81
2022-09-10T16:33:07.527Z,99357.31
2022-09-10T16:35:36.047Z,99353.56
2022-09-10T16:38:08.210Z,99358.09
2022-09-10T16:40:38.336Z,99351.28
2022-09-10T16:43:08.114Z,99351.41
2022-09-10T16:45:35.870Z,99356.53
2022-09-10T16:48:04.582Z,99357.28
2022-09-10T16:50:45.883Z,99350.56
2022-09-10T16:53:14.342Z,99343.72
2022-09-10T16:55:44.985Z,99352.56
2022-09-10T16:58:15.718Z,99354.81
2022-09-10T17:00:45.073Z,99353.50
2022-09-10T17:03:13.274Z,99357.53
2022-09-10T17:05:41.534Z,99350.56
2022-09-10T17:08:27.509Z,99357.28
2022-09-10T17:10:56.328Z,99364.50
2022-09-10T17:13:28.441Z,99362.00
2022-09-10T17:16:23.356Z,99369.53
2022-09-10T17:19:02.428Z,99375.59
2022-09-10T17:21:32.116Z,99375.66
2022-09-10T17:24:02.537Z,99374.66
2022-09-10T17:27:05.535Z,99382.50
2022-09-10T17:29:34.291Z,99388.94
2022-09-10T17:32:02.219Z,99381.47
2022-09-10T17:34:51.660Z,99383.81
2022-09-10T17:37:20.099Z,99390.81
2022-09-10T17:39:55.294Z,99395.50
2022-09-10T17:42:23.228Z,99382.97
2022-09-10T17:44:50.756Z,99391.97
2022-09-10T17:47:34.361Z,99403.19
2022-09-10T17:50:17.850Z,99403.03
2022-09-10T17:52:51.569Z,99405.63
2022-09-10T17:55:20.374Z,99412.09
2022-09-10T17:57:48.049Z,99422.47
2022-09-10T18:00:15.837Z,99428.75
2022-09-10T18:03:20.851Z,99428.25
2022-09-10T18:05:55.007Z,99427.50
2022-09-10T18:08:24.425Z,99427.59
2022-09-10T18:11:10.996Z,99437.44
2022-09-10T18:13:40.666Z,99438.09
2022-09-10T18:16:18.741Z,99438.28
2022-09-10T18:18:54.264Z,99436.78
2022-09-10T18:21:25.577Z,99438.53
2022-09-10T18:24:02.319Z,99432.97
2022-09-10T18:26:32.744Z,99437.66
2022-09-10T18:29:06.675Z,99443.44
2022-09-10T18:31:39.410Z,99444.00
2022-09-10T18:34:09.716Z,99445.22
2022-09-10T18:36:37.200Z,99448.47
2022-09-10T18:39:22.211Z,99459.22
2022-09-10T18:41:59.814Z,99455.91
2022-09-10T18:44:33.487Z,99458.34
2022-09-10T18:47:17.808Z,99459.66
2022-09-10T18:49:59.228Z,99460.53
2022-09-10T18:52:27.453Z,99452.69
2022-09-10T18:54:55.299Z,99459.50
2022-09-10T18:57:23.649Z,99454.97
2022-09-10T18:59:54.403Z,99453.59
2022-09-10T19:02:22.310Z,99448.06
2022-09-10T19:05:10.153Z,99446.28
2022-09-10T19:07:40.248Z,99441.97
2022-09-10T19:10:09.159Z,99437.34
2022-09-10T19:12:37.731Z,99431.66
2022-09-10T19:15:05.996Z,99431.75
2022-09-10T19:17:34.736Z,99432.75
2022-09-10T19:20:02.739Z,99427.97
2022-09-10T19:22:30.737Z,99423.78
2022-09-10T19:24:58.527Z,99436.84
2022-09-10T19:27:26.293Z,99432.97
2022-09-10T19:29:56.365Z,99446.91
2022-09-10T19:32:24.124Z,99444.22
2022-09-10T19:34:55.756Z,99448.41
2022-09-10T19:37:28.392Z,99449.84
2022-09-10T19:39:57.217Z,99453.16
2022-09-10T19:42:25.209Z,99457.72
2022-09-10T19:44:53.451Z,99453.38
2022-09-10T19:47:24.216Z,99450.84
2022-09-10T19:49:52.244Z,99450.81
2022-09-10T19:52:21.394Z,99449.22
2022-09-10T19:54:49.593Z,99450.03
2022-09-10T19:57:17.999Z,99453.38
2022-09-10T19:59:45.611Z,99452.94
2022-09-10T20:02:13.134Z,99450.06
2022-09-10T20:04:41.189Z,99450.44
2022-09-10T20:07:08.817Z,99445.44
2022-09-10T20:09:39.919Z,99439.44
2022-09-10T20:12:08.977Z,99443.41
2022-09-10T20:14:38.258Z,99437.37
2022-09-10T20:17:06.655Z,99452.31
2022-09-10T20:19:34.529Z,99446.72
2022-09-10T20:22:01.946Z,99447.94
2022-09-10T20:24:29.386Z,99441.34
2022-09-10T20:26:57.763Z,99444.63
2022-09-10T20:29:25.588Z,99452.53
2022-09-10T20:31:53.193Z,99451.06
2022-09-10T20:34:21.936Z,99454.53
2022-09-10T20:36:51.383Z,99464.31
2022-09-10T20:39:21.380Z,99464.53
2022-09-10T20:41:49.214Z,99464.91
2022-09-10T20:44:17.234Z,99467.22
2022-09-10T20:47:04.547Z,99471.72
2022-09-10T20:49:39.277Z,99461.22
2022-09-10T20:52:22.324Z,99463.72
2022-09-10T20:54:50.612Z,99456.19
2022-09-10T20:57:18.330Z,99465.19
2022-09-10T20:59:46.119Z,99466.81
2022-09-10T21:02:14.165Z,99466.00
2022-09-10T21:04:46.971Z,99467.25
2022-09-10T21:07:15.180Z,99459.16
2022-09-10T21:09:42.771Z,99449.00
2022-09-10T21:12:16.226Z,99442.16
2022-09-10T21:14:46.526Z,99440.69
2022-09-10T21:17:23.587Z,99445.06
2022-09-10T21:20:09.943Z,99447.75
2022-09-10T21:22:40.051Z,99454.81
2022-09-10T21:25:33.586Z,99447.13
2022-09-10T21:28:07.364Z,99446.09
2022-09-10T21:30:38.697Z,99446.31
2022-09-10T21:33:15.424Z,99448.38
2022-09-10T21:35:47.373Z,99455.66
2022-09-10T21:38:18.171Z,99460.19
2022-09-10T21:40:55.369Z,99452.03
2022-09-10T21:43:26.484Z,99463.97
2022-09-10T21:45:54.716Z,99467.06
2022-09-10T21:48:35.910Z,99458.63
2022-09-10T21:51:05.718Z,99460.94
2022-09-10T21:53:42.662Z,99454.47
2022-09-10T21:56:22.291Z,99464.19
2022-09-10T21:59:26.885Z,99470.50
2022-09-10T22:02:00.712Z,99468.19
2022-09-10T22:04:31.430Z,99472.28
2022-09-10T22:06:58.872Z,99470.09
2022-09-10T22:09:26.693Z,99473.63
2022-09-10T22:11:59.543Z,99465.94
2022-09-10T22:14:27.200Z,99480.72
2022-09-10T22:16:55.188Z,99490.63
2022-09-10T22:19:24.707Z,99491.37
2022-09-10T22:21:59.280Z,99490.37
2022-09-10T22:24:26.962Z,99488.78
2022-09-10T22:26:57.309Z,99484.59
2022-09-10T22:29:27.662Z,99492.50
2022-09-10T22:31:55.772Z,99492.56
2022-09-10T22:34:24.208Z,99491.84
2022-09-10T22:36:51.705Z,99492.16
2022-09-10T22:39:25.211Z,99497.56
2022-09-10T22:41:58.055Z,99491.50
2022-09-10T22:44:26.371Z,99497.87
2022-09-10T22:46:53.912Z,99496.38
2022-09-10T22:49:21.987Z,99503.91
2022-09-10T22:51:49.741Z,99499.56
2022-09-10T22:54:17.805Z,99503.25
2022-09-10T22:56:45.405Z,99501.84
2022-09-10T22:59:14.040Z,99502.88
2022-09-10T23:01:47.398Z,99504.78
2022-09-10T23:04:18.572Z,99507.19
2022-09-10T23:06:46.840Z,99502.47
2022-09-10T23:09:16.193Z,99497.22
2022-09-10T23:11:45.158Z,99500.34
2022-09-10T23:14:19.940Z,99505.03
2022-09-10T23:16:51.807Z,99495.31
2022-09-10T23:19:21.384Z,99500.75
2022-09-10T23:21:54.313Z,99489.19
2022-09-10T23:24:26.503Z,99494.00
2022-09-10T23:26:57.566Z,99497.22
2022-09-10T23:29:27.264Z,99496.53
2022-09-10T23:31:54.923Z,99499.84
2022-09-10T23:34:22.763Z,99494.31
2022-09-10T23:36:53.735Z,99499.25
2022-09-10T23:39:23.417Z,99504.78
2022-09-10T23:41:53.557Z,99497.13
2022-09-10T23:44:21.405Z,99497.13
2022-09-10T23:46:49.069Z,99499.53
2022-09-10T23:49:19.292Z,99515.13
2022-09-10T23:51:47.063Z,99508.63
2022-09-10T23:54:22.968Z,99509.03
2022-09-10T23:56:51.662Z,99514.63
2022-09-10T23:59:19.541Z,99509.81
